sensor_id;sensor_type;location;lat;lon;timestamp;pressure;altitude;pressure_sealevel;temperature;humidity
55517;BME280;41724;51.176;-0.708;2023-05-08T00:01:11;101591.15;;;15.21;56.40
55517;BME280;41724;51.176;-0.708;2023-05-08T00:03:38;101586.97;;;15.44;56.53
55517;BME280;41724;51.176;-0.708;2023-05-08T00:06:06;101583.36;;;15.50;56.39
55517;BME280;41724;51.176;-0.708;2023-05-08T00:08:33;101586.73;;;15.48;56.18
55517;BME280;41724;51.176;-0.708;2023-05-08T00:11:00;101588.75;;;15.51;56.52
55517;BME280;41724;51.176;-0.708;2023-05-08T00:13:27;101588.25;;;15.45;56.84
55517;BME280;41724;51.176;-0.708;2023-05-08T00:15:54;101586.08;;;15.19;56.17
55517;BME280;41724;51.176;-0.708;2023-05-08T00:18:21;101583.70;;;15.06;56.55
55517;BME280;41724;51.176;-0.708;2023-05-08T00:20:48;101584.78;;;15.24;56.28
55517;BME280;41724;51.176;-0.708;2023-05-08T00:23:15;101582.89;;;15.03;56.90
55517;BME280;41724;51.176;-0.708;2023-05-08T00:25:42;101584.57;;;15.26;56.53
55517;BME280;41724;51.176;-0.708;2023-05-08T00:28:09;101589.57;;;14.81;57.07
55517;BME280;41724;51.176;-0.708;2023-05-08T00:30:36;101586.52;;;14.93;56.95
55517;BME280;41724;51.176;-0.708;2023-05-08T00:33:03;101588.31;;;14.78;56.98
55517;BME280;41724;51.176;-0.708;2023-05-08T00:35:30;101587.56;;;14.77;56.88
55517;BME280;41724;51.176;-0.708;2023-05-08T00:37:58;101586.06;;;14.67;56.69
55517;BME280;41724;51.176;-0.708;2023-05-08T00:40:25;101587.38;;;14.53;57.15
55517;BME280;41724;51.176;-0.708;2023-05-08T00:42:52;101586.79;;;14.84;57.07
55517;BME280;41724;51.176;-0.708;2023-05-08T00:45:19;101586.09;;;14.55;57.08
55517;BME280;41724;51.176;-0.708;2023-05-08T00:47:47;101582.59;;;14.77;56.77
55517;BME280;41724;51.176;-0.708;2023-05-08T00:50:16;101585.16;;;14.58;56.93
55517;BME280;41724;51.176;-0.708;2023-05-08T00:52:43;101583.38;;;14.62;57.34
55517;BME280;41724;51.176;-0.708;2023-05-08T00:55:11;101580.00;;;14.48;57.36
55517;BME280;41724;51.176;-0.708;2023-05-08T00:57:38;101579.83;;;14.59;57.02
55517;BME280;41724;51.176;-0.708;2023-05-08T01:00:07;101580.68;;;14.77;57.10
55517;BME280;41724;51.176;-0.708;2023-05-08T01:02:35;101579.00;;;14.40;56.96
55517;BME280;41724;51.176;-0.708;2023-05-08T01:05:02;101573.17;;;14.45;56.49
55517;BME280;41724;51.176;-0.708;2023-05-08T01:07:29;101569.29;;;14.13;57.01
55517;BME280;41724;51.176;-0.708;2023-05-08T01:09:56;101567.51;;;14.42;56.83
55517;BME280;41724;51.176;-0.708;2023-05-08T01:12:33;101571.40;;;14.19;56.82
55517;BME280;41724;51.176;-0.708;2023-05-08T01:15:10;101569.61;;;14.10;57.12
55517;BME280;41724;51.176;-0.708;2023-05-08T01:17:50;101567.29;;;14.56;56.50
55517;BME280;41724;51.176;-0.708;2023-05-08T01:20:33;101568.54;;;14.33;56.64
55517;BME280;41724;51.176;-0.708;2023-05-08T01:23:55;101564.50;;;14.29;57.43
55517;BME280;41724;51.176;-0.708;2023-05-08T01:27:50;101566.35;;;14.51;56.96
55517;BME280;41724;51.176;-0.708;2023-05-08T01:30:50;101565.45;;;14.51;56.74
55517;BME280;41724;51.176;-0.708;2023-05-08T01:33:32;101569.99;;;14.12;57.03
55517;BME280;41724;51.176;-0.708;2023-05-08T01:36:17;101572.41;;;14.03;56.75
55517;BME280;41724;51.176;-0.708;2023-05-08T01:38:54;101570.32;;;13.93;56.95
55517;BME280;41724;51.176;-0.708;2023-05-08T01:41:25;101571.42;;;14.25;57.34
55517;BME280;41724;51.176;-0.708;2023-05-08T01:44:08;101572.44;;;14.31;56.87
55517;BME280;41724;51.176;-0.708;2023-05-08T01:46:37;101564.93;;;13.93;57.14
55517;BME280;41724;51.176;-0.708;2023-05-08T01:49:09;101560.66;;;13.98;57.09
55517;BME280;41724;51.176;-0.708;2023-05-08T01:51:42;101563.48;;;13.92;57.10
55517;BME280;41724;51.176;-0.708;2023-05-08T01:54:14;101563.92;;;13.55;57.54
55517;BME280;41724;51.176;-0.708;2023-05-08T01:56:43;101566.87;;;13.65;56.81
55517;BME280;41724;51.176;-0.708;2023-05-08T01:59:13;101567.14;;;13.88;56.44
55517;BME280;41724;51.176;-0.708;2023-05-08T02:01:45;101568.45;;;13.84;56.91
55517;BME280;41724;51.176;-0.708;2023-05-08T02:04:14;101568.25;;;13.89;56.35
55517;BME280;41724;51.176;-0.708;2023-05-08T02:06:43;101567.69;;;13.74;56.57
55517;BME280;41724;51.176;-0.708;2023-05-08T02:09:11;101568.23;;;13.63;56.83
55517;BME280;41724;51.176;-0.708;2023-05-08T02:11:40;101566.32;;;13.64;57.28
55517;BME280;41724;51.176;-0.708;2023-05-08T02:14:11;101564.61;;;13.52;56.72
55517;BME280;41724;51.176;-0.708;2023-05-08T02:16:39;101563.95;;;13.46;56.49
55517;BME280;41724;51.176;-0.708;2023-05-08T02:19:09;101565.48;;;13.41;56.83
55517;BME280;41724;51.176;-0.708;2023-05-08T02:21:38;101564.17;;;13.92;56.50
55517;BME280;41724;51.176;-0.708;2023-05-08T02:24:07;101565.21;;;13.38;56.52
55517;BME280;41724;51.176;-0.708;2023-05-08T02:26:34;101564.89;;;13.02;57.12
55517;BME280;41724;51.176;-0.708;2023-05-08T02:29:02;101567.44;;;13.04;57.41
55517;BME280;41724;51.176;-0.708;2023-05-08T02:31:29;101565.50;;;13.06;57.87
55517;BME280;41724;51.176;-0.708;2023-05-08T02:33:57;101561.75;;;13.12;57.24
55517;BME280;41724;51.176;-0.708;2023-05-08T02:36:26;101560.58;;;13.34;56.89
55517;BME280;41724;51.176;-0.708;2023-05-08T02:38:55;101558.81;;;13.21;57.26
55517;BME280;41724;51.176;-0.708;2023-05-08T02:41:27;101554.28;;;13.18;57.36
55517;BME280;41724;51.176;-0.708;2023-05-08T02:43:56;101554.47;;;13.34;57.08
55517;BME280;41724;51.176;-0.708;2023-05-08T02:46:30;101554.98;;;13.15;56.52
55517;BME280;41724;51.176;-0.708;2023-05-08T02:49:03;101554.52;;;12.95;56.71
55517;BME280;41724;51.176;-0.708;2023-05-08T02:51:42;101557.30;;;12.92;56.69
55517;BME280;41724;51.176;-0.708;2023-05-08T02:54:18;101554.46;;;12.86;55.98
55517;BME280;41724;51.176;-0.708;2023-05-08T02:56:54;101553.97;;;13.31;56.15
55517;BME280;41724;51.176;-0.708;2023-05-08T02:59:30;101553.35;;;12.71;56.53
55517;BME280;41724;51.176;-0.708;2023-05-08T03:02:08;101549.78;;;13.03;56.02
55517;BME280;41724;51.176;-0.708;2023-05-08T03:04:44;101551.58;;;12.65;56.20
55517;BME280;41724;51.176;-0.708;2023-05-08T03:07:13;101552.58;;;13.18;56.24
55517;BME280;41724;51.176;-0.708;2023-05-08T03:09:44;101554.76;;;12.83;56.17
55517;BME280;41724;51.176;-0.708;2023-05-08T03:12:15;101554.58;;;12.78;56.98
55517;BME280;41724;51.176;-0.708;2023-05-08T03:14:51;101557.31;;;12.91;56.39
55517;BME280;41724;51.176;-0.708;2023-05-08T03:17:20;101557.39;;;12.96;56.32
55517;BME280;41724;51.176;-0.708;2023-05-08T03:19:53;101556.24;;;12.89;56.55
55517;BME280;41724;51.176;-0.708;2023-05-08T03:22:24;101550.41;;;12.78;56.33
55517;BME280;41724;51.176;-0.708;2023-05-08T03:24:52;101551.46;;;12.55;56.23
55517;BME280;41724;51.176;-0.708;2023-05-08T03:27:21;101548.34;;;12.77;55.96
55517;BME280;41724;51.176;-0.708;2023-05-08T03:29:49;101548.36;;;12.49;56.22
55517;BME280;41724;51.176;-0.708;2023-05-08T03:32:17;101552.23;;;12.67;56.62
55517;BME280;41724;51.176;-0.708;2023-05-08T03:34:45;101555.39;;;12.64;56.70
55517;BME280;41724;51.176;-0.708;2023-05-08T03:37:13;101552.36;;;12.66;56.07
55517;BME280;41724;51.176;-0.708;2023-05-08T03:39:40;101548.59;;;12.55;56.28
55517;BME280;41724;51.176;-0.708;2023-05-08T03:42:07;101552.58;;;12.46;55.98
55517;BME280;41724;51.176;-0.708;2023-05-08T03:44:36;101548.36;;;12.65;56.18
55517;BME280;41724;51.176;-0.708;2023-05-08T03:47:03;101547.37;;;12.40;55.80
55517;BME280;41724;51.176;-0.708;2023-05-08T03:49:32;101546.95;;;12.32;56.33
55517;BME280;41724;51.176;-0.708;2023-05-08T03:52:01;101546.87;;;12.44;55.90
55517;BME280;41724;51.176;-0.708;2023-05-08T03:54:29;101543.78;;;12.37;55.99
55517;BME280;41724;51.176;-0.708;2023-05-08T03:56:56;101548.61;;;12.44;55.84
55517;BME280;41724;51.176;-0.708;2023-05-08T03:59:28;101545.97;;;12.39;55.91
55517;BME280;41724;51.176;-0.708;2023-05-08T04:02:05;101544.71;;;12.69;55.99
55517;BME280;41724;51.176;-0.708;2023-05-08T04:04:38;101538.10;;;12.43;55.56
55517;BME280;41724;51.176;-0.708;2023-05-08T04:07:11;101538.01;;;12.39;55.89
55517;BME280;41724;51.176;-0.708;2023-05-08T04:09:43;101535.46;;;12.56;55.89
55517;BME280;41724;51.176;-0.708;2023-05-08T04:12:19;101533.87;;;12.53;55.81
55517;BME280;41724;51.176;-0.708;2023-05-08T04:14:49;101531.10;;;12.30;56.16
55517;BME280;41724;51.176;-0.708;2023-05-08T04:17:26;101534.42;;;12.40;56.37
55517;BME280;41724;51.176;-0.708;2023-05-08T04:20:02;101532.61;;;12.48;56.12
55517;BME280;41724;51.176;-0.708;2023-05-08T04:22:32;101532.67;;;12.45;55.97
55517;BME280;41724;51.176;-0.708;2023-05-08T04:25:02;101530.30;;;12.50;55.53
55517;BME280;41724;51.176;-0.708;2023-05-08T04:27:31;101528.76;;;12.72;55.35
55517;BME280;41724;51.176;-0.708;2023-05-08T04:29:58;101530.33;;;12.48;55.94
55517;BME280;41724;51.176;-0.708;2023-05-08T04:32:26;101530.68;;;12.47;56.22
55517;BME280;41724;51.176;-0.708;2023-05-08T04:34:54;101530.19;;;12.68;56.06
55517;BME280;41724;51.176;-0.708;2023-05-08T04:37:23;101531.68;;;12.50;56.42
55517;BME280;41724;51.176;-0.708;2023-05-08T04:39:51;101531.31;;;12.60;55.94
55517;BME280;41724;51.176;-0.708;2023-05-08T04:42:18;101530.63;;;12.92;55.88
55517;BME280;41724;51.176;-0.708;2023-05-08T04:44:44;101531.88;;;12.72;55.78
55517;BME280;41724;51.176;-0.708;2023-05-08T04:47:12;101530.63;;;12.84;55.90
55517;BME280;41724;51.176;-0.708;2023-05-08T04:49:39;101525.40;;;12.90;55.98
55517;BME280;41724;51.176;-0.708;2023-05-08T04:52:06;101521.90;;;12.93;56.30
55517;BME280;41724;51.176;-0.708;2023-05-08T04:54:33;101526.03;;;12.70;56.33
55517;BME280;41724;51.176;-0.708;2023-05-08T04:57:00;101531.07;;;13.28;56.14
55517;BME280;41724;51.176;-0.708;2023-05-08T04:59:28;101535.49;;;13.21;56.17
55517;BME280;41724;51.176;-0.708;2023-05-08T05:01:55;101536.95;;;13.20;56.37
55517;BME280;41724;51.176;-0.708;2023-05-08T05:04:22;101542.19;;;13.29;56.02
55517;BME280;41724;51.176;-0.708;2023-05-08T05:06:49;101545.38;;;13.15;56.13
55517;BME280;41724;51.176;-0.708;2023-05-08T05:09:16;101545.82;;;13.19;56.51
55517;BME280;41724;51.176;-0.708;2023-05-08T05:11:43;101547.45;;;13.48;56.86
55517;BME280;41724;51.176;-0.708;2023-05-08T05:14:10;101550.41;;;13.21;56.56
55517;BME280;41724;51.176;-0.708;2023-05-08T05:16:37;101555.53;;;13.57;56.82
55517;BME280;41724;51.176;-0.708;2023-05-08T05:19:04;101553.03;;;13.36;57.29
55517;BME280;41724;51.176;-0.708;2023-05-08T05:21:31;101553.46;;;13.43;57.56
55517;BME280;41724;51.176;-0.708;2023-05-08T05:23:58;101556.63;;;13.65;57.34
55517;BME280;41724;51.176;-0.708;2023-05-08T05:26:25;101555.33;;;13.62;57.66
55517;BME280;41724;51.176;-0.708;2023-05-08T05:28:53;101555.76;;;13.98;57.88
55517;BME280;41724;51.176;-0.708;2023-05-08T05:31:20;101564.94;;;14.19;57.67
55517;BME280;41724;51.176;-0.708;2023-05-08T05:33:47;101566.91;;;13.41;61.63
55517;BME280;41724;51.176;-0.708;2023-05-08T05:36:14;101572.04;;;13.73;62.83
55517;BME280;41724;51.176;-0.708;2023-05-08T05:38:41;101571.53;;;13.64;65.91
55517;BME280;41724;51.176;-0.708;2023-05-08T05:41:08;101579.94;;;12.43;74.29
55517;BME280;41724;51.176;-0.708;2023-05-08T05:43:35;101584.31;;;12.01;78.13
55517;BME280;41724;51.176;-0.708;2023-05-08T05:46:03;101586.98;;;12.59;75.82
55517;BME280;41724;51.176;-0.708;2023-05-08T05:48:30;101593.94;;;11.86;80.17
55517;BME280;41724;51.176;-0.708;2023-05-08T05:50:58;101590.55;;;11.66;83.72
55517;BME280;41724;51.176;-0.708;2023-05-08T05:53:25;101587.68;;;12.52;80.43
55517;BME280;41724;51.176;-0.708;2023-05-08T05:55:52;101594.05;;;12.37;80.11
55517;BME280;41724;51.176;-0.708;2023-05-08T05:58:19;101593.71;;;12.97;77.62
55517;BME280;41724;51.176;-0.708;2023-05-08T06:00:46;101592.81;;;13.80;76.01
55517;BME280;41724;51.176;-0.708;2023-05-08T06:03:13;101592.19;;;13.71;74.35
55517;BME280;41724;51.176;-0.708;2023-05-08T06:05:40;101593.74;;;13.70;74.08
55517;BME280;41724;51.176;-0.708;2023-05-08T06:08:07;101599.83;;;13.39;77.69
55517;BME280;41724;51.176;-0.708;2023-05-08T06:10:35;101599.90;;;13.28;77.82
55517;BME280;41724;51.176;-0.708;2023-05-08T06:13:02;101596.99;;;12.78;80.09
55517;BME280;41724;51.176;-0.708;2023-05-08T06:15:29;101596.64;;;13.87;76.33
55517;BME280;41724;51.176;-0.708;2023-05-08T06:17:55;101602.89;;;13.38;76.77
55517;BME280;41724;51.176;-0.708;2023-05-08T06:20:22;101601.86;;;13.45;76.75
55517;BME280;41724;51.176;-0.708;2023-05-08T06:22:49;101603.25;;;13.39;78.31
55517;BME280;41724;51.176;-0.708;2023-05-08T06:25:17;101599.12;;;13.74;74.55
55517;BME280;41724;51.176;-0.708;2023-05-08T06:27:44;101595.74;;;14.54;72.77
55517;BME280;41724;51.176;-0.708;2023-05-08T06:30:11;101593.63;;;14.38;74.29
55517;BME280;41724;51.176;-0.708;2023-05-08T06:32:38;101592.33;;;14.64;73.08
55517;BME280;41724;51.176;-0.708;2023-05-08T06:35:06;101591.12;;;14.38;72.17
55517;BME280;41724;51.176;-0.708;2023-05-08T06:37:34;101595.50;;;14.13;72.00
55517;BME280;41724;51.176;-0.708;2023-05-08T06:40:01;101595.22;;;14.20;72.42
55517;BME280;41724;51.176;-0.708;2023-05-08T06:42:28;101592.59;;;14.54;72.35
55517;BME280;41724;51.176;-0.708;2023-05-08T06:44:56;101589.68;;;14.77;70.40
55517;BME280;41724;51.176;-0.708;2023-05-08T06:47:23;101587.62;;;14.86;71.29
55517;BME280;41724;51.176;-0.708;2023-05-08T06:49:50;101589.81;;;14.19;72.88
55517;BME280;41724;51.176;-0.708;2023-05-08T06:52:18;101587.66;;;14.88;71.78
55517;BME280;41724;51.176;-0.708;2023-05-08T06:54:46;101587.00;;;14.57;72.06
55517;BME280;41724;51.176;-0.708;2023-05-08T06:57:13;101586.14;;;14.29;72.77
55517;BME280;41724;51.176;-0.708;2023-05-08T06:59:40;101588.28;;;14.90;71.47
55517;BME280;41724;51.176;-0.708;2023-05-08T07:02:07;101580.72;;;15.06;70.75
55517;BME280;41724;51.176;-0.708;2023-05-08T07:04:34;101587.14;;;14.77;71.83
55517;BME280;41724;51.176;-0.708;2023-05-08T07:07:01;101585.45;;;15.61;69.59
55517;BME280;41724;51.176;-0.708;2023-05-08T07:09:28;101587.00;;;16.30;67.76
55517;BME280;41724;51.176;-0.708;2023-05-08T07:11:55;101591.15;;;15.39;69.00
55517;BME280;41724;51.176;-0.708;2023-05-08T07:14:22;101590.51;;;14.34;71.99
55517;BME280;41724;51.176;-0.708;2023-05-08T07:16:49;101588.78;;;14.82;70.50
55517;BME280;41724;51.176;-0.708;2023-05-08T07:19:16;101586.97;;;15.70;68.31
55517;BME280;41724;51.176;-0.708;2023-05-08T07:21:43;101583.36;;;15.06;69.68
55517;BME280;41724;51.176;-0.708;2023-05-08T07:24:10;101580.01;;;15.41;68.79
55517;BME280;41724;51.176;-0.708;2023-05-08T07:26:37;101583.87;;;14.78;71.40
55517;BME280;41724;51.176;-0.708;2023-05-08T07:29:04;101581.05;;;14.60;71.98
55517;BME280;41724;51.176;-0.708;2023-05-08T07:31:31;101579.87;;;15.32;69.24
55517;BME280;41724;51.176;-0.708;2023-05-08T07:33:58;101576.51;;;14.89;69.65
55517;BME280;41724;51.176;-0.708;2023-05-08T07:36:25;101582.09;;;15.01;68.66
55517;BME280;41724;51.176;-0.708;2023-05-08T07:38:52;101577.66;;;14.69;68.84
55517;BME280;41724;51.176;-0.708;2023-05-08T07:41:18;101584.80;;;14.05;72.52
55517;BME280;41724;51.176;-0.708;2023-05-08T07:43:45;101578.47;;;15.00;70.95
55517;BME280;41724;51.176;-0.708;2023-05-08T07:46:16;101577.11;;;15.32;68.07
55517;BME280;41724;51.176;-0.708;2023-05-08T07:48:43;101578.58;;;14.24;70.62
55517;BME280;41724;51.176;-0.708;2023-05-08T07:51:11;101573.59;;;14.09;71.06
55517;BME280;41724;51.176;-0.708;2023-05-08T07:53:38;101574.54;;;14.71;69.85
55517;BME280;41724;51.176;-0.708;2023-05-08T07:56:06;101576.83;;;14.27;70.52
55517;BME280;41724;51.176;-0.708;2023-05-08T07:58:33;101575.25;;;14.86;68.29
55517;BME280;41724;51.176;-0.708;2023-05-08T08:01:00;101573.73;;;14.72;69.31
55517;BME280;41724;51.176;-0.708;2023-05-08T08:03:27;101573.86;;;15.00;68.94
55517;BME280;41724;51.176;-0.708;2023-05-08T08:05:54;101573.01;;;13.34;74.00
55517;BME280;41724;51.176;-0.708;2023-05-08T08:08:21;101569.32;;;14.40;71.79
55517;BME280;41724;51.176;-0.708;2023-05-08T08:10:49;101570.43;;;14.92;68.34
55517;BME280;41724;51.176;-0.708;2023-05-08T08:13:16;101576.43;;;14.22;69.70
55517;BME280;41724;51.176;-0.708;2023-05-08T08:15:43;101569.30;;;15.02;69.00
55517;BME280;41724;51.176;-0.708;2023-05-08T08:18:10;101576.50;;;14.46;70.71
55517;BME280;41724;51.176;-0.708;2023-05-08T08:20:37;101570.85;;;14.03;72.03
55517;BME280;41724;51.176;-0.708;2023-05-08T08:23:04;101573.77;;;13.89;74.69
55517;BME280;41724;51.176;-0.708;2023-05-08T08:25:31;101565.53;;;13.11;76.37
55517;BME280;41724;51.176;-0.708;2023-05-08T08:27:58;101571.71;;;12.86;76.10
55517;BME280;41724;51.176;-0.708;2023-05-08T08:30:25;101570.43;;;12.74;78.24
55517;BME280;41724;51.176;-0.708;2023-05-08T08:32:53;101571.35;;;13.70;76.06
55517;BME280;41724;51.176;-0.708;2023-05-08T08:35:20;101564.17;;;13.39;75.99
55517;BME280;41724;51.176;-0.708;2023-05-08T08:37:47;101564.25;;;13.87;74.78
55517;BME280;41724;51.176;-0.708;2023-05-08T08:40:14;101560.41;;;13.33;76.42
55517;BME280;41724;51.176;-0.708;2023-05-08T08:42:41;101558.78;;;13.21;76.95
55517;BME280;41724;51.176;-0.708;2023-05-08T08:45:09;101565.63;;;13.00;79.28
55517;BME280;41724;51.176;-0.708;2023-05-08T08:47:36;101562.69;;;12.91;78.40
55517;BME280;41724;51.176;-0.708;2023-05-08T08:50:05;101558.85;;;12.76;78.76
55517;BME280;41724;51.176;-0.708;2023-05-08T08:52:39;101550.77;;;13.33;77.06
55517;BME280;41724;51.176;-0.708;2023-05-08T08:55:10;101554.61;;;13.92;74.24
55517;BME280;41724;51.176;-0.708;2023-05-08T08:57:44;101550.69;;;14.64;71.46
55517;BME280;41724;51.176;-0.708;2023-05-08T09:00:15;101556.06;;;14.04;72.62
55517;BME280;41724;51.176;-0.708;2023-05-08T09:02:42;101552.78;;;14.80;70.45
55517;BME280;41724;51.176;-0.708;2023-05-08T09:05:10;101549.60;;;15.37;68.24
55517;BME280;41724;51.176;-0.708;2023-05-08T09:07:37;101548.09;;;15.23;67.97
55517;BME280;41724;51.176;-0.708;2023-05-08T09:10:06;101559.08;;;13.69;73.34
55517;BME280;41724;51.176;-0.708;2023-05-08T09:12:33;101562.82;;;12.71;79.30
55517;BME280;41724;51.176;-0.708;2023-05-08T09:15:00;101558.33;;;13.78;75.50
55517;BME280;41724;51.176;-0.708;2023-05-08T09:17:27;101559.34;;;13.48;76.39
55517;BME280;41724;51.176;-0.708;2023-05-08T09:19:55;101557.84;;;13.91;76.35
55517;BME280;41724;51.176;-0.708;2023-05-08T09:22:23;101559.51;;;13.08;78.18
55517;BME280;41724;51.176;-0.708;2023-05-08T09:24:55;101557.59;;;14.01;76.05
55517;BME280;41724;51.176;-0.708;2023-05-08T09:27:24;101554.55;;;13.85;75.08
55517;BME280;41724;51.176;-0.708;2023-05-08T09:30:01;101553.58;;;13.40;76.67
55517;BME280;41724;51.176;-0.708;2023-05-08T09:32:28;101550.04;;;14.25;74.49
55517;BME280;41724;51.176;-0.708;2023-05-08T09:34:55;101547.23;;;14.12;74.85
55517;BME280;41724;51.176;-0.708;2023-05-08T09:37:24;101547.69;;;13.96;74.33
55517;BME280;41724;51.176;-0.708;2023-05-08T09:39:51;101550.02;;;13.71;76.34
55517;BME280;41724;51.176;-0.708;2023-05-08T09:42:18;101552.00;;;13.83;74.79
55517;BME280;41724;51.176;-0.708;2023-05-08T09:44:46;101551.42;;;13.94;75.24
55517;BME280;41724;51.176;-0.708;2023-05-08T09:47:16;101548.27;;;14.11;76.02
55517;BME280;41724;51.176;-0.708;2023-05-08T09:49:56;101546.89;;;14.29;73.92
55517;BME280;41724;51.176;-0.708;2023-05-08T09:52:23;101546.98;;;14.27;73.67
55517;BME280;41724;51.176;-0.708;2023-05-08T09:54:56;101540.52;;;14.37;74.96
55517;BME280;41724;51.176;-0.708;2023-05-08T09:57:23;101536.73;;;14.32;73.75
55517;BME280;41724;51.176;-0.708;2023-05-08T09:59:50;101533.97;;;14.01;75.26
55517;BME280;41724;51.176;-0.708;2023-05-08T10:02:17;101529.11;;;15.51;70.83
55517;BME280;41724;51.176;-0.708;2023-05-08T10:04:44;101531.22;;;14.79;71.59
55517;BME280;41724;51.176;-0.708;2023-05-08T10:07:11;101524.65;;;15.97;68.73
55517;BME280;41724;51.176;-0.708;2023-05-08T10:09:38;101519.50;;;15.36;71.40
55517;BME280;41724;51.176;-0.708;2023-05-08T10:12:06;101517.43;;;15.38;69.53
55517;BME280;41724;51.176;-0.708;2023-05-08T10:14:34;101511.16;;;14.62;73.30
55517;BME280;41724;51.176;-0.708;2023-05-08T10:17:06;101507.99;;;15.05;73.24
55517;BME280;41724;51.176;-0.708;2023-05-08T10:19:37;101504.09;;;15.65;68.57
55517;BME280;41724;51.176;-0.708;2023-05-08T10:22:10;101503.33;;;15.90;69.95
55517;BME280;41724;51.176;-0.708;2023-05-08T10:24:40;101505.20;;;15.60;69.54
55517;BME280;41724;51.176;-0.708;2023-05-08T10:27:12;101510.11;;;14.66;68.94
55517;BME280;41724;51.176;-0.708;2023-05-08T10:29:46;101510.18;;;15.74;67.61
55517;BME280;41724;51.176;-0.708;2023-05-08T10:32:19;101507.32;;;14.52;70.14
55517;BME280;41724;51.176;-0.708;2023-05-08T10:34:52;101509.26;;;14.01;72.62
55517;BME280;41724;51.176;-0.708;2023-05-08T10:37:19;101515.98;;;13.61;75.66
55517;BME280;41724;51.176;-0.708;2023-05-08T10:39:47;101515.57;;;14.66;72.83
55517;BME280;41724;51.176;-0.708;2023-05-08T10:42:15;101515.33;;;15.65;69.05
55517;BME280;41724;51.176;-0.708;2023-05-08T10:44:43;101537.27;;;15.11;69.76
55517;BME280;41724;51.176;-0.708;2023-05-08T10:47:16;101524.23;;;13.65;74.55
55517;BME280;41724;51.176;-0.708;2023-05-08T10:49:50;101521.44;;;14.17;71.79
55517;BME280;41724;51.176;-0.708;2023-05-08T10:52:26;101528.11;;;13.68;76.36
55517;BME280;41724;51.176;-0.708;2023-05-08T10:55:13;101531.16;;;13.90;73.86
55517;BME280;41724;51.176;-0.708;2023-05-08T10:57:40;101528.30;;;13.49;75.23
55517;BME280;41724;51.176;-0.708;2023-05-08T11:00:08;101531.36;;;13.29;76.27
55517;BME280;41724;51.176;-0.708;2023-05-08T11:02:35;101524.68;;;13.48;74.29
55517;BME280;41724;51.176;-0.708;2023-05-08T11:05:19;101517.10;;;14.58;70.57
55517;BME280;41724;51.176;-0.708;2023-05-08T11:07:54;101509.45;;;14.44;69.32
55517;BME280;41724;51.176;-0.708;2023-05-08T11:10:28;101498.62;;;15.11;68.81
55517;BME280;41724;51.176;-0.708;2023-05-08T11:12:56;101503.07;;;15.16;70.25
55517;BME280;41724;51.176;-0.708;2023-05-08T11:15:41;101504.44;;;13.65;73.98
55517;BME280;41724;51.176;-0.708;2023-05-08T11:18:16;101505.99;;;13.84;76.89
55517;BME280;41724;51.176;-0.708;2023-05-08T11:20:57;101510.77;;;13.90;77.36
55517;BME280;41724;51.176;-0.708;2023-05-08T11:23:26;101504.16;;;15.15;75.53
55517;BME280;41724;51.176;-0.708;2023-05-08T11:26:02;101517.01;;;14.93;71.70
55517;BME280;41724;51.176;-0.708;2023-05-08T11:28:31;101516.39;;;13.43;77.92
55517;BME280;41724;51.176;-0.708;2023-05-08T11:31:03;101516.31;;;13.36;78.78
55517;BME280;41724;51.176;-0.708;2023-05-08T11:33:31;101521.39;;;12.90;80.20
55517;BME280;41724;51.176;-0.708;2023-05-08T11:36:02;101520.28;;;13.89;77.84
55517;BME280;41724;51.176;-0.708;2023-05-08T11:38:38;101519.59;;;13.86;76.61
55517;BME280;41724;51.176;-0.708;2023-05-08T11:41:06;101523.95;;;14.23;75.87
55517;BME280;41724;51.176;-0.708;2023-05-08T11:44:05;101528.80;;;13.53;77.62
55517;BME280;41724;51.176;-0.708;2023-05-08T11:46:39;101521.72;;;14.06;75.61
55517;BME280;41724;51.176;-0.708;2023-05-08T11:49:10;101523.49;;;13.34;79.90
55517;BME280;41724;51.176;-0.708;2023-05-08T11:51:38;101523.15;;;13.71;79.29
55517;BME280;41724;51.176;-0.708;2023-05-08T11:54:05;101517.85;;;14.35;76.98
55517;BME280;41724;51.176;-0.708;2023-05-08T11:56:31;101524.89;;;13.59;76.62
55517;BME280;41724;51.176;-0.708;2023-05-08T11:59:02;101510.83;;;13.76;75.24
55517;BME280;41724;51.176;-0.708;2023-05-08T12:01:31;101514.85;;;13.46;79.85
55517;BME280;41724;51.176;-0.708;2023-05-08T12:04:00;101510.29;;;13.94;77.79
55517;BME280;41724;51.176;-0.708;2023-05-08T12:06:27;101513.31;;;14.47;76.53
55517;BME280;41724;51.176;-0.708;2023-05-08T12:08:53;101520.02;;;13.52;78.67
55517;BME280;41724;51.176;-0.708;2023-05-08T12:11:22;101514.17;;;14.83;74.03
55517;BME280;41724;51.176;-0.708;2023-05-08T12:13:50;101505.44;;;14.51;74.90
55517;BME280;41724;51.176;-0.708;2023-05-08T12:16:17;101502.41;;;14.44;74.11
55517;BME280;41724;51.176;-0.708;2023-05-08T12:18:44;101501.23;;;14.69;74.65
55517;BME280;41724;51.176;-0.708;2023-05-08T12:21:11;101504.92;;;14.88;72.51
55517;BME280;41724;51.176;-0.708;2023-05-08T12:23:38;101497.43;;;14.30;73.51
55517;BME280;41724;51.176;-0.708;2023-05-08T12:26:07;101504.87;;;13.51;78.00
55517;BME280;41724;51.176;-0.708;2023-05-08T12:28:35;101488.02;;;13.57;77.14
55517;BME280;41724;51.176;-0.708;2023-05-08T12:31:02;101452.80;;;13.20;76.10
55517;BME280;41724;51.176;-0.708;2023-05-08T12:33:29;101447.57;;;14.18;72.75
55517;BME280;41724;51.176;-0.708;2023-05-08T12:35:57;101445.33;;;14.81;71.28
55517;BME280;41724;51.176;-0.708;2023-05-08T12:38:26;101450.43;;;14.83;71.30
55517;BME280;41724;51.176;-0.708;2023-05-08T12:40:54;101460.08;;;14.20;72.65
55517;BME280;41724;51.176;-0.708;2023-05-08T12:43:30;101477.47;;;14.30;72.56
55517;BME280;41724;51.176;-0.708;2023-05-08T12:45:58;101484.11;;;14.05;73.48
55517;BME280;41724;51.176;-0.708;2023-05-08T12:48:25;101480.54;;;14.12;74.35
55517;BME280;41724;51.176;-0.708;2023-05-08T12:50:53;101473.11;;;14.26;72.64
55517;BME280;41724;51.176;-0.708;2023-05-08T12:53:21;101462.72;;;15.26;69.81